sensor_id;sensor_type;location;lat;lon;timestamp;temperature;humidity
28189;DHT22;15471;51.166;4.470;2023-06-10T00:00:07;22.40;92.80
28189;DHT22;15471;51.166;4.470;2023-06-10T00:02:39;22.50;92.90
28189;DHT22;15471;51.166;4.470;2023-06-10T00:05:05;22.40;93.40
28189;DHT22;15471;51.166;4.470;2023-06-10T00:07:31;22.40;93.50
28189;DHT22;15471;51.166;4.470;2023-06-10T00:09:57;22.30;94.50
28189;DHT22;15471;51.166;4.470;2023-06-10T00:12:23;22.30;94.70
28189;DHT22;15471;51.166;4.470;2023-06-10T00:14:49;22.20;95.40
28189;DHT22;15471;51.166;4.470;2023-06-10T00:17:17;22.20;95.70
28189;DHT22;15471;51.166;4.470;2023-06-10T00:19:43;22.10;96.30
28189;DHT22;15471;51.166;4.470;2023-06-10T00:22:12;22.00;97.10
28189;DHT22;15471;51.166;4.470;2023-06-10T00:24:38;22.00;97.40
28189;DHT22;15471;51.166;4.470;2023-06-10T00:27:05;21.90;97.60
28189;DHT22;15471;51.166;4.470;2023-06-10T00:29:32;22.00;98.30
28189;DHT22;15471;51.166;4.470;2023-06-10T00:31:59;21.90;98.90
28189;DHT22;15471;51.166;4.470;2023-06-10T00:34:25;21.90;99.40
28189;DHT22;15471;51.166;4.470;2023-06-10T00:36:51;21.80;99.90
28189;DHT22;15471;51.166;4.470;2023-06-10T00:39:17;21.70;99.90
28189;DHT22;15471;51.166;4.470;2023-06-10T00:41:43;21.70;99.90
28189;DHT22;15471;51.166;4.470;2023-06-10T00:44:10;21.70;99.90
28189;DHT22;15471;51.166;4.470;2023-06-10T00:46:37;21.60;99.90
28189;DHT22;15471;51.166;4.470;2023-06-10T00:49:04;21.60;99.90
28189;DHT22;15471;51.166;4.470;2023-06-10T00:51:31;21.50;99.90
28189;DHT22;15471;51.166;4.470;2023-06-10T00:53:57;21.50;99.90
28189;DHT22;15471;51.166;4.470;2023-06-10T00:56:23;21.50;99.90
28189;DHT22;15471;51.166;4.470;2023-06-10T00:58:50;21.40;99.90
28189;DHT22;15471;51.166;4.470;2023-06-10T01:01:17;21.40;99.90
28189;DHT22;15471;51.166;4.470;2023-06-10T01:03:43;21.30;99.90
28189;DHT22;15471;51.166;4.470;2023-06-10T01:09:09;21.20;99.90
28189;DHT22;15471;51.166;4.470;2023-06-10T01:11:51;21.20;99.90
28189;DHT22;15471;51.166;4.470;2023-06-10T01:14:19;21.20;99.90
28189;DHT22;15471;51.166;4.470;2023-06-10T01:16:46;21.10;99.90
28189;DHT22;15471;51.166;4.470;2023-06-10T01:19:14;21.10;99.90
28189;DHT22;15471;51.166;4.470;2023-06-10T01:21:43;21.10;99.90
28189;DHT22;15471;51.166;4.470;2023-06-10T01:24:14;21.10;99.90
28189;DHT22;15471;51.166;4.470;2023-06-10T01:26:45;21.10;99.90
28189;DHT22;15471;51.166;4.470;2023-06-10T01:29:33;21.20;99.90
28189;DHT22;15471;51.166;4.470;2023-06-10T01:32:08;21.20;99.90
28189;DHT22;15471;51.166;4.470;2023-06-10T01:34:38;21.20;99.90
28189;DHT22;15471;51.166;4.470;2023-06-10T01:37:05;21.10;99.90
28189;DHT22;15471;51.166;4.470;2023-06-10T01:39:32;21.10;99.90
28189;DHT22;15471;51.166;4.470;2023-06-10T01:41:58;21.10;99.90
28189;DHT22;15471;51.166;4.470;2023-06-10T01:44:24;21.00;99.90
28189;DHT22;15471;51.166;4.470;2023-06-10T01:46:50;21.00;99.90
28189;DHT22;15471;51.166;4.470;2023-06-10T01:49:17;21.00;99.90
28189;DHT22;15471;51.166;4.470;2023-06-10T01:51:43;20.90;99.90
28189;DHT22;15471;51.166;4.470;2023-06-10T01:54:09;20.80;99.90
28189;DHT22;15471;51.166;4.470;2023-06-10T01:56:35;20.80;99.90
28189;DHT22;15471;51.166;4.470;2023-06-10T01:59:01;20.80;99.90
28189;DHT22;15471;51.166;4.470;2023-06-10T02:01:28;20.80;99.90
28189;DHT22;15471;51.166;4.470;2023-06-10T02:03:54;20.80;99.90
28189;DHT22;15471;51.166;4.470;2023-06-10T02:06:21;20.80;99.90
28189;DHT22;15471;51.166;4.470;2023-06-10T02:08:47;20.80;99.90
28189;DHT22;15471;51.166;4.470;2023-06-10T02:11:16;20.80;99.90
28189;DHT22;15471;51.166;4.470;2023-06-10T02:13:42;20.80;99.90
28189;DHT22;15471;51.166;4.470;2023-06-10T02:16:09;20.80;99.90
28189;DHT22;15471;51.166;4.470;2023-06-10T02:18:39;20.80;99.90
28189;DHT22;15471;51.166;4.470;2023-06-10T02:21:08;20.70;99.90
28189;DHT22;15471;51.166;4.470;2023-06-10T02:23:34;20.70;99.90
28189;DHT22;15471;51.166;4.470;2023-06-10T02:26:03;20.60;99.90
28189;DHT22;15471;51.166;4.470;2023-06-10T02:28:29;20.60;99.90
28189;DHT22;15471;51.166;4.470;2023-06-10T02:30:57;20.50;99.90
28189;DHT22;15471;51.166;4.470;2023-06-10T02:33:25;20.60;99.90
28189;DHT22;15471;51.166;4.470;2023-06-10T02:35:53;20.60;99.90
28189;DHT22;15471;51.166;4.470;2023-06-10T02:38:19;20.50;99.90
28189;DHT22;15471;51.166;4.470;2023-06-10T02:40:45;20.50;99.90
28189;DHT22;15471;51.166;4.470;2023-06-10T02:43:12;20.40;99.90
28189;DHT22;15471;51.166;4.470;2023-06-10T02:45:38;20.40;99.90
28189;DHT22;15471;51.166;4.470;2023-06-10T02:48:06;20.40;99.90
28189;DHT22;15471;51.166;4.470;2023-06-10T02:50:33;20.30;99.90
28189;DHT22;15471;51.166;4.470;2023-06-10T02:53:22;20.30;99.90
28189;DHT22;15471;51.166;4.470;2023-06-10T02:55:54;20.30;99.90
28189;DHT22;15471;51.166;4.470;2023-06-10T02:58:20;20.20;99.90
28189;DHT22;15471;51.166;4.470;2023-06-10T03:00:47;20.20;99.90
28189;DHT22;15471;51.166;4.470;2023-06-10T03:03:14;20.20;99.90
28189;DHT22;15471;51.166;4.470;2023-06-10T03:05:55;20.20;99.90
28189;DHT22;15471;51.166;4.470;2023-06-10T03:08:23;20.10;99.90
28189;DHT22;15471;51.166;4.470;2023-06-10T03:10:49;20.10;99.90
28189;DHT22;15471;51.166;4.470;2023-06-10T03:13:17;20.10;99.90
28189;DHT22;15471;51.166;4.470;2023-06-10T03:15:44;20.10;99.90
28189;DHT22;15471;51.166;4.470;2023-06-10T03:18:15;20.10;99.90
28189;DHT22;15471;51.166;4.470;2023-06-10T03:20:43;20.00;99.90
28189;DHT22;15471;51.166;4.470;2023-06-10T03:23:10;20.00;99.90
28189;DHT22;15471;51.166;4.470;2023-06-10T03:25:36;20.00;99.90
28189;DHT22;15471;51.166;4.470;2023-06-10T03:28:02;20.00;99.90
28189;DHT22;15471;51.166;4.470;2023-06-10T03:30:29;20.00;99.90
28189;DHT22;15471;51.166;4.470;2023-06-10T03:32:55;20.00;99.90
28189;DHT22;15471;51.166;4.470;2023-06-10T03:35:24;20.00;99.90
28189;DHT22;15471;51.166;4.470;2023-06-10T03:37:51;19.90;99.90
28189;DHT22;15471;51.166;4.470;2023-06-10T03:40:17;19.90;99.90
28189;DHT22;15471;51.166;4.470;2023-06-10T03:42:46;19.80;99.90
28189;DHT22;15471;51.166;4.470;2023-06-10T03:45:14;19.70;99.90
28189;DHT22;15471;51.166;4.470;2023-06-10T03:47:41;19.70;99.90
28189;DHT22;15471;51.166;4.470;2023-06-10T03:50:10;19.70;99.90
28189;DHT22;15471;51.166;4.470;2023-06-10T03:52:38;19.70;99.90
28189;DHT22;15471;51.166;4.470;2023-06-10T03:55:05;19.80;99.90
28189;DHT22;15471;51.166;4.470;2023-06-10T03:57:32;19.80;99.90
28189;DHT22;15471;51.166;4.470;2023-06-10T03:59:58;19.80;99.90
28189;DHT22;15471;51.166;4.470;2023-06-10T04:02:24;19.70;99.90
28189;DHT22;15471;51.166;4.470;2023-06-10T04:04:50;19.80;99.90
28189;DHT22;15471;51.166;4.470;2023-06-10T04:07:17;19.80;99.90
28189;DHT22;15471;51.166;4.470;2023-06-10T04:09:46;19.80;99.90
28189;DHT22;15471;51.166;4.470;2023-06-10T04:12:13;19.80;99.90
28189;DHT22;15471;51.166;4.470;2023-06-10T04:14:40;19.80;99.90
28189;DHT22;15471;51.166;4.470;2023-06-10T04:17:10;19.90;99.90
28189;DHT22;15471;51.166;4.470;2023-06-10T04:19:37;19.80;99.90
28189;DHT22;15471;51.166;4.470;2023-06-10T04:22:03;19.90;99.90
28189;DHT22;15471;51.166;4.470;2023-06-10T04:24:31;19.90;99.90
28189;DHT22;15471;51.166;4.470;2023-06-10T04:26:58;19.90;99.90
28189;DHT22;15471;51.166;4.470;2023-06-10T04:29:24;19.90;99.90
28189;DHT22;15471;51.166;4.470;2023-06-10T04:31:52;19.90;99.90
28189;DHT22;15471;51.166;4.470;2023-06-10T04:34:19;20.00;99.90
28189;DHT22;15471;51.166;4.470;2023-06-10T04:36:45;20.00;99.90
28189;DHT22;15471;51.166;4.470;2023-06-10T04:39:11;20.10;99.90
28189;DHT22;15471;51.166;4.470;2023-06-10T04:41:38;20.10;99.90
28189;DHT22;15471;51.166;4.470;2023-06-10T04:44:05;20.20;99.90
28189;DHT22;15471;51.166;4.470;2023-06-10T04:46:31;20.10;99.90
28189;DHT22;15471;51.166;4.470;2023-06-10T04:48:57;20.20;99.90
28189;DHT22;15471;51.166;4.470;2023-06-10T04:51:24;20.30;99.90
28189;DHT22;15471;51.166;4.470;2023-06-10T04:53:50;20.40;99.90
28189;DHT22;15471;51.166;4.470;2023-06-10T04:56:16;20.40;99.90
28189;DHT22;15471;51.166;4.470;2023-06-10T04:58:42;20.50;99.90
28189;DHT22;15471;51.166;4.470;2023-06-10T05:01:08;20.50;99.90
28189;DHT22;15471;51.166;4.470;2023-06-10T05:03:35;20.60;99.90
28189;DHT22;15471;51.166;4.470;2023-06-10T05:06:01;20.70;99.90
28189;DHT22;15471;51.166;4.470;2023-06-10T05:08:27;20.70;99.90
28189;DHT22;15471;51.166;4.470;2023-06-10T05:10:53;20.70;99.90
28189;DHT22;15471;51.166;4.470;2023-06-10T05:13:19;20.80;99.90
28189;DHT22;15471;51.166;4.470;2023-06-10T05:15:45;20.80;99.90
28189;DHT22;15471;51.166;4.470;2023-06-10T05:18:12;20.80;99.90
28189;DHT22;15471;51.166;4.470;2023-06-10T05:20:38;20.80;99.90
28189;DHT22;15471;51.166;4.470;2023-06-10T05:23:05;20.90;99.90
28189;DHT22;15471;51.166;4.470;2023-06-10T05:25:32;21.00;99.90
28189;DHT22;15471;51.166;4.470;2023-06-10T05:27:58;21.10;99.90
28189;DHT22;15471;51.166;4.470;2023-06-10T05:30:24;21.10;99.90
28189;DHT22;15471;51.166;4.470;2023-06-10T05:32:51;21.30;99.90
28189;DHT22;15471;51.166;4.470;2023-06-10T05:35:18;21.20;99.90
28189;DHT22;15471;51.166;4.470;2023-06-10T05:37:44;21.30;99.90
28189;DHT22;15471;51.166;4.470;2023-06-10T05:40:11;21.40;99.90
28189;DHT22;15471;51.166;4.470;2023-06-10T05:42:37;21.50;99.90
28189;DHT22;15471;51.166;4.470;2023-06-10T05:45:05;21.50;99.90
28189;DHT22;15471;51.166;4.470;2023-06-10T05:47:32;21.60;99.90
28189;DHT22;15471;51.166;4.470;2023-06-10T05:49:58;21.60;99.90
28189;DHT22;15471;51.166;4.470;2023-06-10T05:52:24;21.60;99.90
28189;DHT22;15471;51.166;4.470;2023-06-10T05:54:50;21.70;99.90
28189;DHT22;15471;51.166;4.470;2023-06-10T05:57:16;21.80;99.90
28189;DHT22;15471;51.166;4.470;2023-06-10T05:59:42;21.80;99.90
28189;DHT22;15471;51.166;4.470;2023-06-10T06:02:08;21.90;99.90
28189;DHT22;15471;51.166;4.470;2023-06-10T06:04:34;22.00;99.90
28189;DHT22;15471;51.166;4.470;2023-06-10T06:07:00;22.00;99.90
28189;DHT22;15471;51.166;4.470;2023-06-10T06:09:26;22.10;99.90
28189;DHT22;15471;51.166;4.470;2023-06-10T06:11:52;22.20;99.90
28189;DHT22;15471;51.166;4.470;2023-06-10T06:14:18;22.30;99.90
28189;DHT22;15471;51.166;4.470;2023-06-10T06:16:45;22.30;99.90
28189;DHT22;15471;51.166;4.470;2023-06-10T06:19:11;22.30;99.90
28189;DHT22;15471;51.166;4.470;2023-06-10T06:21:37;22.40;99.90
28189;DHT22;15471;51.166;4.470;2023-06-10T06:24:03;22.50;99.90
28189;DHT22;15471;51.166;4.470;2023-06-10T06:26:29;22.50;99.90
28189;DHT22;15471;51.166;4.470;2023-06-10T06:28:55;22.50;99.90
28189;DHT22;15471;51.166;4.470;2023-06-10T06:31:21;22.60;99.90
28189;DHT22;15471;51.166;4.470;2023-06-10T06:33:47;22.70;99.90
28189;DHT22;15471;51.166;4.470;2023-06-10T06:36:13;22.80;99.90
28189;DHT22;15471;51.166;4.470;2023-06-10T06:38:39;22.90;99.90
28189;DHT22;15471;51.166;4.470;2023-06-10T06:41:05;23.00;99.90
28189;DHT22;15471;51.166;4.470;2023-06-10T06:43:32;23.10;99.90
28189;DHT22;15471;51.166;4.470;2023-06-10T06:46:20;23.20;99.90
28189;DHT22;15471;51.166;4.470;2023-06-10T06:48:47;23.20;99.90
28189;DHT22;15471;51.166;4.470;2023-06-10T06:51:20;23.30;99.90
28189;DHT22;15471;51.166;4.470;2023-06-10T06:53:46;23.40;99.90
28189;DHT22;15471;51.166;4.470;2023-06-10T06:56:13;23.50;99.90
28189;DHT22;15471;51.166;4.470;2023-06-10T06:58:42;23.60;99.90
28189;DHT22;15471;51.166;4.470;2023-06-10T07:01:08;23.70;99.90
28189;DHT22;15471;51.166;4.470;2023-06-10T07:03:36;23.80;99.90
28189;DHT22;15471;51.166;4.470;2023-06-10T07:06:02;23.90;99.90
28189;DHT22;15471;51.166;4.470;2023-06-10T07:08:36;23.90;99.90
28189;DHT22;15471;51.166;4.470;2023-06-10T07:11:13;24.00;99.90
28189;DHT22;15471;51.166;4.470;2023-06-10T07:14:08;24.10;99.90
28189;DHT22;15471;51.166;4.470;2023-06-10T07:16:34;24.30;99.90
28189;DHT22;15471;51.166;4.470;2023-06-10T07:19:00;24.30;99.90
28189;DHT22;15471;51.166;4.470;2023-06-10T07:21:26;24.50;99.90
28189;DHT22;15471;51.166;4.470;2023-06-10T07:23:54;24.70;99.90
28189;DHT22;15471;51.166;4.470;2023-06-10T07:26:22;24.70;99.90
28189;DHT22;15471;51.166;4.470;2023-06-10T07:28:48;24.80;99.90
28189;DHT22;15471;51.166;4.470;2023-06-10T07:31:14;24.90;99.90
28189;DHT22;15471;51.166;4.470;2023-06-10T07:33:40;24.90;99.90
28189;DHT22;15471;51.166;4.470;2023-06-10T07:36:10;25.00;99.90
28189;DHT22;15471;51.166;4.470;2023-06-10T07:38:36;25.10;99.90
28189;DHT22;15471;51.166;4.470;2023-06-10T07:41:02;25.20;99.90
28189;DHT22;15471;51.166;4.470;2023-06-10T07:43:28;25.30;99.90
28189;DHT22;15471;51.166;4.470;2023-06-10T07:45:54;25.30;99.90
28189;DHT22;15471;51.166;4.470;2023-06-10T07:48:20;25.50;99.90
28189;DHT22;15471;51.166;4.470;2023-06-10T07:50:47;25.60;99.90
28189;DHT22;15471;51.166;4.470;2023-06-10T07:53:25;25.60;99.90
28189;DHT22;15471;51.166;4.470;2023-06-10T07:55:51;25.60;99.90
28189;DHT22;15471;51.166;4.470;2023-06-10T07:58:17;25.70;99.90
28189;DHT22;15471;51.166;4.470;2023-06-10T08:00:43;25.90;99.90
28189;DHT22;15471;51.166;4.470;2023-06-10T08:03:09;26.00;99.90
28189;DHT22;15471;51.166;4.470;2023-06-10T08:05:35;26.20;99.90
28189;DHT22;15471;51.166;4.470;2023-06-10T08:08:02;26.30;99.90
28189;DHT22;15471;51.166;4.470;2023-06-10T08:10:28;26.50;99.90
28189;DHT22;15471;51.166;4.470;2023-06-10T08:12:54;26.50;99.90
28189;DHT22;15471;51.166;4.470;2023-06-10T08:15:20;26.60;99.90
28189;DHT22;15471;51.166;4.470;2023-06-10T08:17:46;26.80;99.90
28189;DHT22;15471;51.166;4.470;2023-06-10T08:20:12;26.80;99.90
28189;DHT22;15471;51.166;4.470;2023-06-10T08:22:38;27.00;99.90
28189;DHT22;15471;51.166;4.470;2023-06-10T08:25:05;27.10;99.90
28189;DHT22;15471;51.166;4.470;2023-06-10T08:27:31;28.00;99.90
28189;DHT22;15471;51.166;4.470;2023-06-10T08:29:57;29.40;97.00
28189;DHT22;15471;51.166;4.470;2023-06-10T08:32:25;31.00;92.50
28189;DHT22;15471;51.166;4.470;2023-06-10T08:34:51;32.50;85.30
28189;DHT22;15471;51.166;4.470;2023-06-10T08:37:17;34.00;77.90
28189;DHT22;15471;51.166;4.470;2023-06-10T08:39:43;34.70;67.60
28189;DHT22;15471;51.166;4.470;2023-06-10T08:42:36;35.50;63.70
28189;DHT22;15471;51.166;4.470;2023-06-10T08:45:12;36.40;60.50
28189;DHT22;15471;51.166;4.470;2023-06-10T08:47:45;37.30;56.60
28189;DHT22;15471;51.166;4.470;2023-06-10T08:50:18;37.50;53.60
28189;DHT22;15471;51.166;4.470;2023-06-10T08:52:48;38.10;51.60
28189;DHT22;15471;51.166;4.470;2023-06-10T08:55:18;38.80;49.90
28189;DHT22;15471;51.166;4.470;2023-06-10T08:57:46;39.20;48.50
28189;DHT22;15471;51.166;4.470;2023-06-10T09:00:13;39.60;46.90
28189;DHT22;15471;51.166;4.470;2023-06-10T09:02:40;39.70;46.20
28189;DHT22;15471;51.166;4.470;2023-06-10T09:05:07;39.90;45.00
28189;DHT22;15471;51.166;4.470;2023-06-10T09:07:35;40.10;44.60
28189;DHT22;15471;51.166;4.470;2023-06-10T09:10:03;40.70;43.70
28189;DHT22;15471;51.166;4.470;2023-06-10T09:12:33;40.90;42.60
28189;DHT22;15471;51.166;4.470;2023-06-10T09:15:01;41.20;41.80
28189;DHT22;15471;51.166;4.470;2023-06-10T09:17:28;41.30;42.00
28189;DHT22;15471;51.166;4.470;2023-06-10T09:19:54;41.20;41.80
28189;DHT22;15471;51.166;4.470;2023-06-10T09:22:24;41.50;42.50
28189;DHT22;15471;51.166;4.470;2023-06-10T09:25:01;42.10;42.20
28189;DHT22;15471;51.166;4.470;2023-06-10T09:27:31;42.40;41.30
28189;DHT22;15471;51.166;4.470;2023-06-10T09:29:58;42.00;39.50
28189;DHT22;15471;51.166;4.470;2023-06-10T09:32:27;42.00;39.90
28189;DHT22;15471;51.166;4.470;2023-06-10T09:34:59;41.40;40.20
28189;DHT22;15471;51.166;4.470;2023-06-10T09:37:28;41.60;40.40
28189;DHT22;15471;51.166;4.470;2023-06-10T09:40:08;41.60;39.70
28189;DHT22;15471;51.166;4.470;2023-06-10T09:42:37;41.00;39.70
28189;DHT22;15471;51.166;4.470;2023-06-10T09:45:05;40.40;40.10
28189;DHT22;15471;51.166;4.470;2023-06-10T09:47:34;40.30;40.70
28189;DHT22;15471;51.166;4.470;2023-06-10T09:50:03;39.50;40.10
28189;DHT22;15471;51.166;4.470;2023-06-10T09:52:30;39.40;41.20
28189;DHT22;15471;51.166;4.470;2023-06-10T09:55:00;38.90;40.90
28189;DHT22;15471;51.166;4.470;2023-06-10T09:57:30;38.40;40.70
28189;DHT22;15471;51.166;4.470;2023-06-10T09:59:59;37.60;41.00
28189;DHT22;15471;51.166;4.470;2023-06-10T10:02:51;37.30;42.40
28189;DHT22;15471;51.166;4.470;2023-06-10T10:05:22;36.70;42.10
28189;DHT22;15471;51.166;4.470;2023-06-10T10:07:51;36.20;42.70
28189;DHT22;15471;51.166;4.470;2023-06-10T10:10:22;36.30;42.80
28189;DHT22;15471;51.166;4.470;2023-06-10T10:12:58;36.20;43.70
28189;DHT22;15471;51.166;4.470;2023-06-10T10:15:28;35.60;43.60
28189;DHT22;15471;51.166;4.470;2023-06-10T10:18:06;35.10;44.80
28189;DHT22;15471;51.166;4.470;2023-06-10T10:20:34;34.60;45.50
28189;DHT22;15471;51.166;4.470;2023-06-10T10:23:04;34.50;44.80
28189;DHT22;15471;51.166;4.470;2023-06-10T10:25:37;34.50;43.40
28189;DHT22;15471;51.166;4.470;2023-06-10T10:28:11;34.50;44.90
28189;DHT22;15471;51.166;4.470;2023-06-10T10:30:41;34.40;44.30
28189;DHT22;15471;51.166;4.470;2023-06-10T10:33:33;34.10;43.20
28189;DHT22;15471;51.166;4.470;2023-06-10T10:36:02;34.00;43.30
28189;DHT22;15471;51.166;4.470;2023-06-10T10:38:31;33.60;43.90
28189;DHT22;15471;51.166;4.470;2023-06-10T10:41:05;33.60;43.80
28189;DHT22;15471;51.166;4.470;2023-06-10T10:43:36;33.40;44.40
28189;DHT22;15471;51.166;4.470;2023-06-10T10:46:12;33.40;44.40
28189;DHT22;15471;51.166;4.470;2023-06-10T10:48:41;33.40;44.20
28189;DHT22;15471;51.166;4.470;2023-06-10T10:51:12;33.30;43.90
28189;DHT22;15471;51.166;4.470;2023-06-10T10:53:41;33.10;44.20
28189;DHT22;15471;51.166;4.470;2023-06-10T10:56:27;32.80;44.60
28189;DHT22;15471;51.166;4.470;2023-06-10T10:59:07;32.70;45.50
28189;DHT22;15471;51.166;4.470;2023-06-10T11:18:53;32.30;45.30
28189;DHT22;15471;51.166;4.470;2023-06-10T11:21:20;32.20;45.70
28189;DHT22;15471;51.166;4.470;2023-06-10T11:23:47;32.20;46.70
28189;DHT22;15471;51.166;4.470;2023-06-10T11:26:30;32.30;46.10
28189;DHT22;15471;51.166;4.470;2023-06-10T15:05:50;35.20;38.10
28189;DHT22;15471;51.166;4.470;2023-06-10T15:08:16;36.40;38.20
28189;DHT22;15471;51.166;4.470;2023-06-10T15:10:42;38.50;35.40
28189;DHT22;15471;51.166;4.470;2023-06-10T15:13:08;40.60;33.60
28189;DHT22;15471;51.166;4.470;2023-06-10T15:15:35;42.90;32.00
28189;DHT22;15471;51.166;4.470;2023-06-10T15:18:01;44.40;30.00
28189;DHT22;15471;51.166;4.470;2023-06-10T15:20:27;44.80;29.30
28189;DHT22;15471;51.166;4.470;2023-06-10T15:22:54;44.80;29.20
28189;DHT22;15471;51.166;4.470;2023-06-10T15:25:20;44.30;28.40
28189;DHT22;15471;51.166;4.470;2023-06-10T15:27:46;43.60;28.80
28189;DHT22;15471;51.166;4.470;2023-06-10T15:30:13;43.70;28.60
28189;DHT22;15471;51.166;4.470;2023-06-10T15:32:39;44.30;28.00
28189;DHT22;15471;51.166;4.470;2023-06-10T15:35:06;45.10;26.90
28189;DHT22;15471;51.166;4.470;2023-06-10T15:37:35;45.40;27.00
28189;DHT22;15471;51.166;4.470;2023-06-10T15:40:01;46.50;26.10
28189;DHT22;15471;51.166;4.470;2023-06-10T15:42:28;47.00;26.10
28189;DHT22;15471;51.166;4.470;2023-06-10T15:44:54;47.20;25.50
28189;DHT22;15471;51.166;4.470;2023-06-10T15:47:20;47.40;24.90
28189;DHT22;15471;51.166;4.470;2023-06-10T15:49:46;48.00;24.80
28189;DHT22;15471;51.166;4.470;2023-06-10T15:52:12;48.90;24.10
28189;DHT22;15471;51.166;4.470;2023-06-10T15:54:38;49.60;23.80
28189;DHT22;15471;51.166;4.470;2023-06-10T15:57:04;50.70;23.00
28189;DHT22;15471;51.166;4.470;2023-06-10T15:59:31;51.80;22.80
28189;DHT22;15471;51.166;4.470;2023-06-10T16:01:57;52.00;22.30
28189;DHT22;15471;51.166;4.470;2023-06-10T16:04:24;51.10;22.20
28189;DHT22;15471;51.166;4.470;2023-06-10T16:06:50;50.60;22.20
28189;DHT22;15471;51.166;4.470;2023-06-10T16:09:16;50.80;22.60
28189;DHT22;15471;51.166;4.470;2023-06-10T16:11:42;51.30;22.30
28189;DHT22;15471;51.166;4.470;2023-06-10T16:14:08;52.00;22.20
28189;DHT22;15471;51.166;4.470;2023-06-10T16:16:39;52.90;22.00
28189;DHT22;15471;51.166;4.470;2023-06-10T16:19:05;53.20;21.50
28189;DHT22;15471;51.166;4.470;2023-06-10T16:21:31;53.80;21.90
28189;DHT22;15471;51.166;4.470;2023-06-10T16:23:57;54.30;20.90
28189;DHT22;15471;51.166;4.470;2023-06-10T16:26:23;54.90;21.00
28189;DHT22;15471;51.166;4.470;2023-06-10T16:28:49;55.70;20.60
28189;DHT22;15471;51.166;4.470;2023-06-10T16:31:15;56.10;20.40
28189;DHT22;15471;51.166;4.470;2023-06-10T16:33:41;56.30;20.20
28189;DHT22;15471;51.166;4.470;2023-06-10T16:36:07;56.50;19.90
28189;DHT22;15471;51.166;4.470;2023-06-10T16:38:33;56.80;19.70
28189;DHT22;15471;51.166;4.470;2023-06-10T16:41:00;56.20;19.90
28189;DHT22;15471;51.166;4.470;2023-06-10T16:43:25;55.90;19.50
28189;DHT22;15471;51.166;4.470;2023-06-10T16:45:52;55.60;19.40
28189;DHT22;15471;51.166;4.470;2023-06-10T16:48:20;55.00;19.80
28189;DHT22;15471;51.166;4.470;2023-06-10T16:50:46;54.60;19.90
28189;DHT22;15471;51.166;4.470;2023-06-10T16:53:12;54.30;20.00
28189;DHT22;15471;51.166;4.470;2023-06-10T16:55:38;54.10;20.10
28189;DHT22;15471;51.166;4.470;2023-06-10T16:58:05;53.00;20.50
28189;DHT22;15471;51.166;4.470;2023-06-10T17:00:31;52.20;20.60
28189;DHT22;15471;51.166;4.470;2023-06-10T17:02:58;52.00;20.80
28189;DHT22;15471;51.166;4.470;2023-06-10T17:05:24;51.50;20.80
28189;DHT22;15471;51.166;4.470;2023-06-10T17:07:50;51.30;21.00
28189;DHT22;15471;51.166;4.470;2023-06-10T17:10:16;51.20;21.30
28189;DHT22;15471;51.166;4.470;2023-06-10T17:12:42;50.90;21.20
28189;DHT22;15471;51.166;4.470;2023-06-10T17:15:08;50.90;21.30
28189;DHT22;15471;51.166;4.470;2023-06-10T17:17:34;50.80;22.20
28189;DHT22;15471;51.166;4.470;2023-06-10T17:20:01;50.80;21.30
28189;DHT22;15471;51.166;4.470;2023-06-10T17:22:28;50.10;22.00
28189;DHT22;15471;51.166;4.470;2023-06-10T17:24:54;50.40;22.30
28189;DHT22;15471;51.166;4.470;2023-06-10T17:27:20;50.40;21.80
28189;DHT22;15471;51.166;4.470;2023-06-10T17:29:46;49.90;21.70
28189;DHT22;15471;51.166;4.470;2023-06-10T17:32:18;49.30;21.90
28189;DHT22;15471;51.166;4.470;2023-06-10T17:34:44;49.00;22.70
28189;DHT22;15471;51.166;4.470;2023-06-10T17:37:11;48.90;22.90
28189;DHT22;15471;51.166;4.470;2023-06-10T17:39:37;48.30;23.50
28189;DHT22;15471;51.166;4.470;2023-06-10T17:42:09;47.70;23.80
28189;DHT22;15471;51.166;4.470;2023-06-10T17:44:35;47.10;24.60
28189;DHT22;15471;51.166;4.470;2023-06-10T17:47:01;45.90;25.20
28189;DHT22;15471;51.166;4.470;2023-06-10T17:49:28;44.50;26.50
28189;DHT22;15471;51.166;4.470;2023-06-10T17:51:54;43.00;27.10
28189;DHT22;15471;51.166;4.470;2023-06-10T17:54:20;41.50;28.30
28189;DHT22;15471;51.166;4.470;2023-06-10T17:56:46;40.00;29.50
28189;DHT22;15471;51.166;4.470;2023-06-10T17:59:12;39.10;30.00
28189;DHT22;15471;51.166;4.470;2023-06-10T18:01:38;38.20;31.00
28189;DHT22;15471;51.166;4.470;2023-06-10T18:04:05;37.60;31.80
28189;DHT22;15471;51.166;4.470;2023-06-10T18:06:32;37.20;32.70
28189;DHT22;15471;51.166;4.470;2023-06-10T18:08:58;36.60;33.30
28189;DHT22;15471;51.166;4.470;2023-06-10T18:11:25;36.30;34.10
